Time;durP1;ratioP1;P1;durP2;ratioP2;P2;SDS_P1;SDS_P2;PMS_P1;PMS_P2;Temp;Humidity;BMP_temperature;BMP_pressure;BME280_temperature;BME280_humidity;BME280_pressure;Samples;Min_cycle;Max_cycle;Signal;HPM_P1;HPM_P2
2022/04/21 00:00:25;;;;;;;1999.90;999.90;;;7.20;99.90;;;;;;5085233;28;20468;-65
2022/04/21 00:02:53;;;;;;;1999.90;999.90;;;7.00;99.90;;;;;;5085142;28;20452;-64
2022/04/21 00:05:20;;;;;;;1999.90;999.90;;;6.90;99.90;;;;;;5086138;28;20946;-65
2022/04/21 00:07:48;;;;;;;1999.90;999.90;;;6.80;99.90;;;;;;5084948;28;20461;-65
2022/04/21 00:10:15;;;;;;;1999.90;999.90;;;6.70;99.90;;;;;;5084786;28;20468;-65
2022/04/21 00:12:42;;;;;;;1999.90;999.90;;;6.70;99.90;;;;;;5084376;28;20476;-65
2022/04/21 00:15:11;;;;;;;1999.90;999.90;;;6.70;99.90;;;;;;5087837;28;21240;-65
2022/04/21 00:17:38;;;;;;;1999.90;999.90;;;6.80;99.90;;;;;;5092137;28;20489;-64
2022/04/21 00:20:07;;;;;;;1999.90;999.90;;;6.80;99.90;;;;;;5090938;28;20480;-65
2022/04/21 00:25:19;;;;;;;1999.90;999.90;;;6.60;99.90;;;;;;5091374;28;20975;-64
2022/04/21 00:27:47;;;;;;;1999.90;999.90;;;6.60;99.90;;;;;;5091505;28;20497;-65
2022/04/21 00:30:16;;;;;;;1999.90;999.90;;;6.50;99.90;;;;;;5092364;28;20468;-65
2022/04/21 00:32:43;;;;;;;1999.90;999.90;;;6.60;99.90;;;;;;5093026;28;21093;-65
2022/04/21 00:37:50;;;;;;;1999.90;999.90;;;6.50;99.90;;;;;;5092800;28;20456;-69
2022/04/21 00:40:18;;;;;;;1999.90;999.90;;;6.50;99.90;;;;;;5094714;28;20482;-69
2022/04/21 00:42:45;;;;;;;1999.90;999.90;;;6.50;99.90;;;;;;5095164;28;20444;-70
2022/04/21 00:45:13;;;;;;;1999.90;999.90;;;6.50;99.90;;;;;;5094961;28;20501;-67
2022/04/21 00:47:43;;;;;;;1999.90;999.90;;;6.60;99.90;;;;;;5094100;28;20787;-69
2022/04/21 00:50:13;;;;;;;1999.90;999.90;;;6.60;99.90;;;;;;5094367;28;20447;-69
2022/04/21 00:52:40;;;;;;;1999.90;999.90;;;6.60;99.90;;;;;;5093774;28;20484;-68
2022/04/21 00:55:10;;;;;;;1999.90;999.90;;;6.60;99.90;;;;;;5095713;28;20448;-70
2022/04/21 00:57:38;;;;;;;1999.90;999.90;;;6.60;99.90;;;;;;5094364;28;20444;-69
2022/04/21 01:00:07;;;;;;;1999.90;999.90;;;6.60;99.90;;;;;;5094059;28;20440;-69
2022/04/21 01:05:26;;;;;;;1999.90;999.90;;;6.50;99.90;;;;;;5095258;28;20433;-69
2022/04/21 01:07:54;;;;;;;1999.90;999.90;;;6.50;99.90;;;;;;5095313;28;20440;-69
2022/04/21 01:10:23;;;;;;;1999.90;999.90;;;6.30;99.90;;;;;;5095257;28;20463;-69
2022/04/21 01:12:50;;;;;;;1999.90;999.90;;;6.30;99.90;;;;;;5095353;28;20571;-69
2022/04/21 01:15:16;;;;;;;1999.90;999.90;;;6.10;99.90;;;;;;5094792;28;20460;-69
2022/04/21 01:17:43;;;;;;;1999.90;999.90;;;6.10;99.90;;;;;;5096318;28;20451;-69
2022/04/21 01:20:10;;;;;;;1999.90;999.90;;;6.10;99.90;;;;;;5095963;28;20476;-69
2022/04/21 01:22:38;;;;;;;1999.90;999.90;;;6.10;99.90;;;;;;5093661;28;20494;-70
2022/04/21 01:25:06;;;;;;;1999.90;999.90;;;6.00;99.90;;;;;;5094405;28;20471;-68
2022/04/21 01:27:35;;;;;;;1999.90;999.90;;;6.00;99.90;;;;;;5089775;28;20536;-70
2022/04/21 01:30:03;;;;;;;1999.90;999.90;;;6.00;99.90;;;;;;5090599;28;20456;-69
2022/04/21 01:32:35;;;;;;;1999.90;999.90;;;5.90;99.90;;;;;;5091654;28;21052;-69
2022/04/21 01:35:02;;;;;;;1999.90;999.90;;;5.90;99.90;;;;;;5092751;28;20444;-69
2022/04/21 01:42:58;;;;;;;1999.90;999.90;;;5.60;99.90;;;;;;5055246;28;21083;-69
2022/04/21 01:45:24;;;;;;;1999.90;999.90;;;5.50;99.90;;;;;;5092335;28;20444;-69
2022/04/21 01:47:51;;;;;;;1999.90;999.90;;;5.50;99.90;;;;;;5093739;28;20471;-69
2022/04/21 01:50:18;;;;;;;1999.90;999.90;;;5.50;99.90;;;;;;5094065;28;20812;-70
2022/04/21 01:52:45;;;;;;;1999.90;999.90;;;5.40;99.90;;;;;;5095544;28;21016;-69
2022/04/21 01:55:12;;;;;;;1999.90;999.90;;;5.50;99.90;;;;;;5092983;28;21086;-68
2022/04/21 01:57:40;;;;;;;1999.90;999.90;;;5.40;99.90;;;;;;5090807;28;20530;-69
2022/04/21 02:00:08;;;;;;;1999.90;999.90;;;5.20;99.90;;;;;;5089457;28;20471;-68
2022/04/21 02:02:34;;;;;;;1999.90;999.90;;;5.10;99.90;;;;;;5091333;28;20449;-69
2022/04/21 02:05:02;;;;;;;1999.90;999.90;;;5.20;99.90;;;;;;5091731;28;20445;-68
2022/04/21 02:07:29;;;;;;;1999.90;999.90;;;5.20;99.90;;;;;;5091110;28;20468;-69
2022/04/21 02:09:56;;;;;;;1999.90;999.90;;;5.20;99.90;;;;;;5092786;28;20491;-69
2022/04/21 02:12:23;;;;;;;1999.90;999.90;;;5.30;99.90;;;;;;5091876;28;21177;-69
2022/04/21 02:14:52;;;;;;;1999.90;999.90;;;5.30;99.90;;;;;;5091560;28;20448;-69
2022/04/21 02:17:19;;;;;;;1999.90;999.90;;;5.30;99.90;;;;;;5090826;28;20468;-68
2022/04/21 02:19:46;;;;;;;1999.90;999.90;;;5.10;99.90;;;;;;5089310;28;20498;-68
2022/04/21 02:22:13;;;;;;;1999.90;999.90;;;4.80;99.90;;;;;;5092875;28;20474;-68
2022/04/21 02:24:40;;;;;;;1999.90;999.90;;;4.90;99.90;;;;;;5090168;28;20459;-70
2022/04/21 02:27:07;;;;;;;1999.90;999.90;;;4.90;99.90;;;;;;5091456;28;20500;-69
2022/04/21 02:29:33;;;;;;;1999.90;999.90;;;5.00;99.90;;;;;;5091757;28;20497;-68
2022/04/21 02:32:02;;;;;;;1999.90;999.90;;;5.10;99.90;;;;;;5090468;28;20457;-68
2022/04/21 02:34:29;;;;;;;1999.90;999.90;;;5.20;99.90;;;;;;5090713;28;20480;-68
2022/04/21 02:36:56;;;;;;;1999.90;999.90;;;5.20;99.90;;;;;;5090547;28;20514;-69
2022/04/21 02:39:24;;;;;;;1999.90;999.90;;;5.40;99.90;;;;;;5089265;28;20502;-69
2022/04/21 02:41:50;;;;;;;1999.90;999.90;;;5.40;99.90;;;;;;5091017;28;20478;-69
2022/04/21 02:44:17;;;;;;;1999.90;999.90;;;5.50;99.90;;;;;;5088989;28;20452;-69
2022/04/21 02:46:44;;;;;;;1999.90;999.90;;;5.60;99.90;;;;;;5089530;28;21052;-68
2022/04/21 02:49:12;;;;;;;1999.90;999.90;;;5.70;99.90;;;;;;5091115;28;20449;-68
2022/04/21 02:51:39;;;;;;;1999.90;999.90;;;5.80;99.90;;;;;;5090611;28;20448;-69
2022/04/21 02:59:34;;;;;;;1999.90;999.90;;;5.90;99.90;;;;;;5089291;28;21022;-69
2022/04/21 03:02:01;;;;;;;1999.90;999.90;;;6.00;99.90;;;;;;5090870;28;20440;-70
2022/04/21 03:04:29;;;;;;;1999.90;999.90;;;6.00;99.90;;;;;;5089831;28;20436;-69
2022/04/21 03:06:56;;;;;;;1999.90;999.90;;;6.10;99.90;;;;;;5090847;28;21070;-69
2022/04/21 03:09:22;;;;;;;1999.90;999.90;;;6.10;99.90;;;;;;5089615;28;20510;-69
2022/04/21 03:11:49;;;;;;;1999.90;999.90;;;6.20;99.90;;;;;;5089946;28;20510;-69
2022/04/21 03:14:18;;;;;;;1999.90;999.90;;;6.20;99.90;;;;;;5089637;28;20550;-68
2022/04/21 03:16:45;;;;;;;1999.90;999.90;;;6.20;99.90;;;;;;5088866;28;20476;-69
2022/04/21 03:19:11;;;;;;;1999.90;999.90;;;6.30;99.90;;;;;;5090930;28;20942;-69
2022/04/21 03:24:24;;;;;;;1999.90;999.90;;;6.00;99.90;;;;;;5089298;28;20447;-69
2022/04/21 03:26:52;;;;;;;1999.90;999.90;;;5.90;99.90;;;;;;5089611;28;20904;-69
2022/04/21 03:29:19;;;;;;;1999.90;999.90;;;5.80;99.90;;;;;;5089287;28;20441;-69
2022/04/21 03:31:48;;;;;;;1999.90;999.90;;;5.70;99.90;;;;;;5089419;28;20441;-69
2022/04/21 03:34:16;;;;;;;1999.90;999.90;;;5.80;99.90;;;;;;5090707;28;20475;-69
2022/04/21 03:36:47;;;;;;;1999.90;999.90;;;5.80;99.90;;;;;;5089561;28;20480;-69
2022/04/21 03:39:13;;;;;;;1999.90;999.90;;;5.90;99.90;;;;;;5089488;28;20448;-69
2022/04/21 03:41:40;;;;;;;1999.90;999.90;;;5.90;99.90;;;;;;5089833;28;20525;-69
2022/04/21 03:44:07;;;;;;;1999.90;999.90;;;6.10;99.90;;;;;;5089107;28;20530;-69
2022/04/21 03:46:34;;;;;;;1999.90;999.90;;;6.10;99.90;;;;;;5089673;28;20490;-66
2022/04/21 03:49:01;;;;;;;1999.90;999.90;;;6.20;99.90;;;;;;5089297;28;20566;-70
2022/04/21 03:51:27;;;;;;;1999.90;999.90;;;6.20;99.90;;;;;;5087948;28;20444;-69
2022/04/21 03:53:55;;;;;;;1999.90;999.90;;;6.30;99.90;;;;;;5088638;28;20549;-69
2022/04/21 03:56:22;;;;;;;1999.90;999.90;;;6.30;99.90;;;;;;5088593;28;20468;-69
2022/04/21 03:58:50;;;;;;;1999.90;999.90;;;6.20;99.90;;;;;;5089235;28;20452;-68
2022/04/21 04:01:18;;;;;;;1999.90;999.90;;;6.00;99.90;;;;;;5088867;28;20505;-69
2022/04/21 04:03:45;;;;;;;1999.90;999.90;;;6.00;99.90;;;;;;5090434;28;20481;-68
2022/04/21 04:11:38;;;;;;;1999.90;999.90;;;5.90;99.90;;;;;;5089509;28;20427;-69
2022/04/21 04:14:06;;;;;;;1999.90;999.90;;;6.00;99.90;;;;;;5088191;28;20533;-69
2022/04/21 04:16:34;;;;;;;1999.90;999.90;;;6.10;99.90;;;;;;5090126;28;20475;-67
2022/04/21 04:19:00;;;;;;;1999.90;999.90;;;6.20;99.90;;;;;;5090625;28;20445;-69
2022/04/21 04:21:27;;;;;;;1999.90;999.90;;;6.20;99.90;;;;;;5090571;28;20486;-68
2022/04/21 04:23:54;;;;;;;1999.90;999.90;;;6.20;99.90;;;;;;5089879;28;20487;-68
2022/04/21 04:26:20;;;;;;;1999.90;999.90;;;6.30;99.90;;;;;;5091557;28;20518;-69
2022/04/21 04:28:49;;;;;;;1999.90;999.90;;;6.30;99.90;;;;;;5089706;28;20478;-69
2022/04/21 04:31:16;;;;;;;1999.90;999.90;;;6.40;99.90;;;;;;5089965;28;20444;-69
2022/04/21 04:33:43;;;;;;;1999.90;999.90;;;6.30;99.90;;;;;;5092485;28;20494;-69
2022/04/21 04:36:10;;;;;;;1999.90;999.90;;;6.50;99.90;;;;;;5092953;28;20476;-68
2022/04/21 04:38:37;;;;;;;1999.90;999.90;;;6.50;99.90;;;;;;5093028;28;20497;-69
2022/04/21 04:42:16;;;;;;;1999.90;999.90;;;6.70;99.90;;;;;;5093102;28;20497;-70
2022/04/21 04:43:51;;;;;;;1999.90;999.90;;;6.80;99.90;;;;;;5083457;28;20443;-69
2022/04/21 04:46:37;;;;;;;1999.90;999.90;;;6.80;99.90;;;;;;5092613;28;20468;-68
2022/04/21 04:49:06;;;;;;;1999.90;999.90;;;6.90;99.90;;;;;;5093012;28;20914;-69
2022/04/21 04:51:34;;;;;;;1999.90;999.90;;;6.90;99.90;;;;;;5092612;28;20448;-68
2022/04/21 04:54:04;;;;;;;1999.90;999.90;;;7.00;99.90;;;;;;5093608;28;20502;-69
2022/04/21 04:56:32;;;;;;;1999.90;999.90;;;6.90;99.90;;;;;;5093356;28;20475;-70
2022/04/21 04:59:00;;;;;;;1999.90;999.90;;;6.80;99.90;;;;;;5092997;28;20537;-69
2022/04/21 05:01:30;;;;;;;1999.90;999.90;;;6.90;99.90;;;;;;5095141;28;20445;-69
2022/04/21 05:04:04;;;;;;;1999.90;999.90;;;6.80;99.90;;;;;;5096766;28;20542;-68
2022/04/21 05:06:35;;;;;;;1999.90;999.90;;;7.10;99.90;;;;;;5095258;28;20529;-68
2022/04/21 05:09:01;;;;;;;1999.90;999.90;;;7.20;99.90;;;;;;5095539;28;20854;-69
2022/04/21 05:11:28;;;;;;;1999.90;999.90;;;7.50;99.90;;;;;;5094755;28;20453;-69
2022/04/21 05:13:55;;;;;;;1999.90;999.90;;;7.70;99.90;;;;;;5094954;28;20483;-69
2022/04/21 05:16:23;;;;;;;1999.90;999.90;;;7.80;99.90;;;;;;5095002;28;20471;-67
2022/04/21 05:18:50;;;;;;;1999.90;999.90;;;7.80;99.90;;;;;;5094941;28;20474;-69
2022/04/21 05:21:17;;;;;;;1999.90;999.90;;;8.00;99.90;;;;;;5095466;28;20514;-69
2022/04/21 05:23:47;;;;;;;1999.90;999.90;;;7.80;99.90;;;;;;5094716;28;20488;-69
2022/04/21 05:26:14;;;;;;;1999.90;999.90;;;7.70;99.90;;;;;;5094654;28;20472;-69
2022/04/21 05:28:41;;;;;;;1999.90;999.90;;;7.60;99.90;;;;;;5094677;28;20444;-68
2022/04/21 05:31:07;;;;;;;1999.90;999.90;;;7.70;99.90;;;;;;5095006;28;20493;-69
2022/04/21 05:33:37;;;;;;;1999.90;999.90;;;7.70;99.90;;;;;;5094926;28;20915;-69
2022/04/21 05:36:06;;;;;;;1999.90;999.90;;;7.80;99.90;;;;;;5074310;28;20481;-69
2022/04/21 05:38:33;;;;;;;1999.90;999.90;;;7.90;99.90;;;;;;5074304;28;20954;-69
2022/04/21 05:41:00;;;;;;;1999.90;999.90;;;7.80;99.90;;;;;;5093629;28;20448;-69
2022/04/21 05:43:31;;;;;;;1999.90;999.90;;;7.80;99.90;;;;;;5094177;28;20444;-69
2022/04/21 05:45:58;;;;;;;1999.90;999.90;;;7.90;99.90;;;;;;5094247;28;20464;-70
2022/04/21 05:48:25;;;;;;;1999.90;999.90;;;8.00;99.90;;;;;;5094555;28;20441;-68
2022/04/21 05:50:54;;;;;;;1999.90;999.90;;;8.00;99.90;;;;;;5094929;28;20494;-69
2022/04/21 05:53:23;;;;;;;1999.90;999.90;;;8.00;99.90;;;;;;5094479;28;20548;-69
2022/04/21 05:55:51;;;;;;;1999.90;999.90;;;8.00;99.90;;;;;;5094916;28;20853;-69
2022/04/21 05:58:18;;;;;;;1999.90;999.90;;;7.90;99.90;;;;;;5094471;28;20440;-69
2022/04/21 06:00:45;;;;;;;1999.90;999.90;;;8.00;99.90;;;;;;5094405;28;20449;-68
2022/04/21 06:03:12;;;;;;;1999.90;999.90;;;8.00;99.90;;;;;;5093236;28;20482;-69
2022/04/21 06:05:38;;;;;;;1999.90;999.90;;;8.00;99.90;;;;;;5094446;28;20492;-69
2022/04/21 06:08:07;;;;;;;1999.90;999.90;;;8.00;99.90;;;;;;5094118;28;20486;-69
2022/04/21 06:10:34;;;;;;;1999.90;999.90;;;8.10;99.90;;;;;;5094319;28;20449;-69
2022/04/21 06:13:02;;;;;;;1999.90;999.90;;;8.30;99.90;;;;;;5093482;28;20441;-69
2022/04/21 06:15:30;;;;;;;1999.90;999.90;;;8.10;99.90;;;;;;5094064;28;20989;-69
2022/04/21 06:17:57;;;;;;;1999.90;999.90;;;8.10;99.90;;;;;;5093853;28;20533;-69
2022/04/21 06:20:24;;;;;;;1999.90;999.90;;;8.10;99.90;;;;;;5088877;28;20453;-69
2022/04/21 06:22:50;;;;;;;1999.90;999.90;;;8.10;99.90;;;;;;5092891;28;20448;-69
2022/04/21 06:25:18;;;;;;;1999.90;999.90;;;8.00;99.90;;;;;;5089063;28;20511;-68
2022/04/21 06:27:45;;;;;;;1999.90;999.90;;;8.10;99.90;;;;;;5073805;28;20479;-69
2022/04/21 06:30:12;;;;;;;1999.90;999.90;;;8.10;99.90;;;;;;5073124;28;20536;-69
2022/04/21 06:32:39;;;;;;;1999.90;999.90;;;8.10;99.90;;;;;;5079355;28;20457;-69
2022/04/21 06:35:06;;;;;;;1999.90;999.90;;;8.10;99.90;;;;;;5093554;28;20484;-69
2022/04/21 06:37:34;;;;;;;1999.90;999.90;;;8.20;99.90;;;;;;5092980;22;20507;-66
2022/04/21 06:40:00;;;;;;;1999.90;999.90;;;8.20;99.90;;;;;;5076132;28;21022;-66
2022/04/21 06:42:28;;;;;;;1999.90;999.90;;;8.30;99.90;;;;;;5073432;28;20459;-66
2022/04/21 06:50:23;;;;;;;1999.90;999.90;;;8.20;99.90;;;;;;5088529;28;20515;-66
2022/04/21 06:52:50;;;;;;;1999.90;999.90;;;8.30;99.90;;;;;;5072693;28;20934;-66
2022/04/21 06:55:17;;;;;;;1999.90;999.90;;;8.40;99.90;;;;;;5075598;28;20484;-66
2022/04/21 06:57:45;;;;;;;1999.90;999.90;;;8.60;99.90;;;;;;5081504;28;20469;-65
2022/04/21 07:00:12;;;;;;;1999.90;999.90;;;8.60;99.90;;;;;;5074438;28;20445;-66
2022/04/21 07:02:41;;;;;;;1999.90;999.90;;;8.50;99.90;;;;;;5080095;28;20460;-65
2022/04/21 07:05:10;;;;;;;1999.90;999.90;;;8.50;99.90;;;;;;5075492;28;20838;-66
2022/04/21 07:07:37;;;;;;;1999.90;999.90;;;8.60;99.90;;;;;;5072921;28;20465;-66
2022/04/21 07:10:04;;;;;;;1999.90;999.90;;;8.70;99.90;;;;;;5083326;28;20451;-65
2022/04/21 07:12:31;;;;;;;1999.90;999.90;;;8.80;99.90;;;;;;5092763;28;20494;-65
2022/04/21 07:15:01;;;;;;;1999.90;999.90;;;8.70;99.90;;;;;;5073902;28;20526;-66
2022/04/21 07:17:28;;;;;;;1999.90;999.90;;;8.60;99.90;;;;;;5072503;28;20465;-63
2022/04/21 07:19:54;;;;;;;1999.90;999.90;;;8.50;99.90;;;;;;5089433;28;20996;-65
2022/04/21 07:22:21;;;;;;;1999.90;999.90;;;8.60;99.90;;;;;;5092238;28;20501;-66
2022/04/21 07:24:48;;;;;;;1999.90;999.90;;;8.50;99.90;;;;;;5065388;28;21093;-66
2022/04/21 07:27:15;;;;;;;1999.90;999.90;;;8.60;99.90;;;;;;5078282;28;20588;-66
2022/04/21 07:29:41;;;;;;;1999.90;999.90;;;8.50;99.90;;;;;;5083549;28;20457;-66
2022/04/21 07:32:10;;;;;;;1999.90;999.90;;;8.70;99.90;;;;;;5074529;28;20453;-66
2022/04/21 07:34:37;;;;;;;1999.90;999.90;;;8.80;99.90;;;;;;5073766;28;20513;-66
2022/04/21 07:37:05;;;;;;;1999.90;999.90;;;8.70;99.90;;;;;;5087930;28;20557;-66
2022/04/21 07:39:32;;;;;;;1999.90;999.90;;;8.80;99.90;;;;;;5082669;28;20441;-66
2022/04/21 07:41:59;;;;;;;1999.90;999.90;;;8.80;99.90;;;;;;5070378;28;20456;-64
2022/04/21 07:44:26;;;;;;;1999.90;999.90;;;8.90;99.90;;;;;;5077710;28;20449;-66
2022/04/21 07:46:53;;;;;;;1999.90;999.90;;;9.00;99.90;;;;;;5073831;28;20480;-67
2022/04/21 07:54:50;;;;;;;1999.90;999.90;;;9.10;99.90;;;;;;5081476;28;20480;-66
2022/04/21 07:57:16;;;;;;;1999.90;999.90;;;9.20;99.90;;;;;;5062753;28;20884;-66
2022/04/21 07:59:44;;;;;;;1999.90;999.90;;;9.40;99.90;;;;;;5069911;28;20957;-66
2022/04/21 08:02:11;;;;;;;1999.90;999.90;;;9.40;99.90;;;;;;5066746;28;20453;-66
2022/04/21 08:04:39;;;;;;;1999.90;999.90;;;9.50;99.90;;;;;;5058816;28;20452;-67
2022/04/21 08:07:06;;;;;;;1999.90;999.90;;;9.60;99.90;;;;;;5071518;28;20481;-67
2022/04/21 08:09:33;;;;;;;1999.90;999.90;;;9.70;99.90;;;;;;5071308;28;20480;-66
2022/04/21 08:12:00;;;;;;;1999.90;999.90;;;9.90;99.90;;;;;;5073787;28;20457;-66
2022/04/21 08:14:26;;;;;;;1999.90;999.90;;;9.90;99.90;;;;;;5080750;28;21081;-66
2022/04/21 08:16:53;;;;;;;1999.90;999.90;;;9.80;99.90;;;;;;5071309;28;20844;-67
2022/04/21 08:19:20;;;;;;;1999.90;999.90;;;9.90;99.90;;;;;;5075294;28;20460;-66
2022/04/21 08:21:48;;;;;;;1999.90;999.90;;;10.00;99.90;;;;;;5074467;28;20457;-67
2022/04/21 08:32:41;;;;;;;1999.90;999.90;;;10.20;99.90;;;;;;5044066;28;20515;-67
2022/04/21 08:35:09;;;;;;;1999.90;999.90;;;10.30;99.90;;;;;;5091059;28;20487;-67
2022/04/21 08:37:37;;;;;;;1999.90;999.90;;;10.30;99.90;;;;;;5074315;28;20511;-66
2022/04/21 08:40:06;;;;;;;1999.90;999.90;;;10.50;99.90;;;;;;5074634;28;20445;-67
2022/04/21 08:42:36;;;;;;;1999.90;999.90;;;10.70;99.90;;;;;;5058159;28;20970;-67
2022/04/21 08:45:03;;;;;;;1999.90;999.90;;;10.80;99.90;;;;;;5076637;28;21035;-66
2022/04/21 08:47:31;;;;;;;1999.90;999.90;;;11.00;99.90;;;;;;5073690;28;21051;-67
2022/04/21 08:50:04;;;;;;;1999.90;999.90;;;10.90;99.90;;;;;;5076396;28;20966;-67
2022/04/21 08:52:33;;;;;;;1999.90;999.90;;;10.80;99.90;;;;;;5070140;28;20472;-67
2022/04/21 08:55:02;;;;;;;1999.90;999.90;;;10.40;99.90;;;;;;5068799;28;20540;-67
2022/04/21 08:57:30;;;;;;;1999.90;999.90;;;10.50;99.90;;;;;;5069578;28;20472;-67
2022/04/21 08:59:57;;;;;;;1999.90;999.90;;;10.50;99.90;;;;;;5073142;28;20528;-67
2022/04/21 09:02:34;;;;;;;1999.90;999.90;;;10.90;99.90;;;;;;5072789;28;20527;-67
2022/04/21 09:05:02;;;;;;;1999.90;999.90;;;11.00;99.90;;;;;;5073621;28;20449;-67
2022/04/21 09:07:28;;;;;;;1999.90;999.90;;;10.70;99.90;;;;;;5073986;28;20460;-67
2022/04/21 09:10:06;;;;;;;1999.90;999.90;;;10.80;99.90;;;;;;5074268;28;20495;-67
2022/04/21 09:12:33;;;;;;;1999.90;999.90;;;10.90;99.90;;;;;;5073842;28;20521;-67
2022/04/21 09:15:06;;;;;;;1999.90;999.90;;;10.80;99.90;;;;;;5073062;28;20900;-67
2022/04/21 09:17:38;;;;;;;1999.90;999.90;;;10.70;99.90;;;;;;5073972;28;20465;-66
2022/04/21 09:20:06;;;;;;;1999.90;999.90;;;10.70;99.90;;;;;;5074344;28;20449;-67
2022/04/21 09:22:33;;;;;;;1999.90;999.90;;;10.80;99.90;;;;;;5073484;28;20453;-65
2022/04/21 09:25:00;;;;;;;1999.90;999.90;;;10.90;99.90;;;;;;5073728;28;20528;-66
2022/04/21 09:27:38;;;;;;;1999.90;999.90;;;11.10;99.90;;;;;;5073263;28;20465;-65
2022/04/21 09:30:10;;;;;;;1999.90;999.90;;;11.10;99.90;;;;;;5073286;28;20950;-66
2022/04/21 09:32:37;;;;;;;1999.90;999.90;;;11.30;99.90;;;;;;5074156;28;20440;-66
2022/04/21 09:35:05;;;;;;;1999.90;999.90;;;11.20;99.90;;;;;;5073589;28;20542;-65
2022/04/21 09:37:33;;;;;;;1999.90;999.90;;;11.30;99.90;;;;;;5069507;28;97813;-65
2022/04/21 09:40:03;;;;;;;1999.90;999.90;;;11.60;99.90;;;;;;5074251;28;20822;-65
2022/04/21 09:42:30;;;;;;;1999.90;999.90;;;11.70;99.90;;;;;;5074127;28;20495;-65
2022/04/21 09:47:50;;;;;;;1999.90;999.90;;;11.90;99.90;;;;;;5073244;28;20822;-67
2022/04/21 09:50:17;;;;;;;1999.90;999.90;;;11.80;99.90;;;;;;5074588;28;20449;-64
2022/04/21 09:52:48;;;;;;;1999.90;999.90;;;11.60;99.90;;;;;;5074292;28;20453;-65
2022/04/21 09:55:25;;;;;;;1999.90;999.90;;;11.70;99.90;;;;;;5073990;28;20484;-65
2022/04/21 09:57:53;;;;;;;1999.90;999.90;;;11.80;99.90;;;;;;5074238;28;20465;-65
2022/04/21 10:00:22;;;;;;;1999.90;999.90;;;11.90;99.90;;;;;;5073597;28;20838;-65
2022/04/21 10:02:50;;;;;;;1999.90;999.90;;;12.10;99.90;;;;;;5073340;28;20519;-64
2022/04/21 10:05:18;;;;;;;1999.90;999.90;;;11.90;99.90;;;;;;5073815;28;20442;-65
2022/04/21 10:07:46;;;;;;;1999.90;999.90;;;12.10;99.90;;;;;;5073747;28;21402;-62
2022/04/21 10:10:12;;;;;;;1999.90;999.90;;;11.80;99.90;;;;;;5073953;28;20960;-64
2022/04/21 10:12:41;;;;;;;1999.90;999.90;;;11.50;99.90;;;;;;5073630;28;20479;-64
2022/04/21 10:15:10;;;;;;;1999.90;999.90;;;11.70;99.90;;;;;;5073486;28;20481;-65
2022/04/21 10:17:38;;;;;;;1999.90;999.90;;;11.60;99.90;;;;;;5073895;28;20553;-65
2022/04/21 10:20:08;;;;;;;1999.90;999.90;;;11.80;99.90;;;;;;5073657;28;20453;-65
2022/04/21 10:22:34;;;;;;;1999.90;999.90;;;11.70;99.90;;;;;;5073271;28;20445;-62
2022/04/21 10:25:03;;;;;;;1999.90;999.90;;;11.80;99.90;;;;;;5073975;28;20516;-65
2022/04/21 10:27:38;;;;;;;1999.90;999.90;;;11.80;99.90;;;;;;5073389;28;20474;-65
2022/04/21 10:30:15;;;;;;;1999.90;999.90;;;11.90;99.90;;;;;;5073550;28;20444;-65
2022/04/21 10:32:55;;;;;;;1999.90;999.90;;;11.90;99.90;;;;;;5073357;28;20445;-65
2022/04/21 10:35:52;;;;;;;1999.90;999.90;;;11.60;99.90;;;;;;5073620;28;20473;-65
2022/04/21 10:38:20;;;;;;;1999.90;999.90;;;11.70;99.90;;;;;;5071065;28;20553;-65
2022/04/21 10:40:58;;;;;;;1999.90;999.90;;;11.90;99.90;;;;;;5073171;28;20450;-65
2022/04/21 10:43:25;;;;;;;1999.90;999.90;;;12.00;99.90;;;;;;5072823;28;20450;-67
2022/04/21 10:46:05;;;;;;;1999.90;999.90;;;11.90;99.90;;;;;;5073051;28;20511;-65
2022/04/21 10:48:43;;;;;;;1999.90;999.90;;;11.90;99.90;;;;;;5073327;28;20498;-67
2022/04/21 10:51:10;;;;;;;1999.90;999.90;;;11.70;99.90;;;;;;5073729;28;20536;-66
2022/04/21 10:59:29;;;;;;;1999.90;999.90;;;11.60;99.90;;;;;;5071721;28;20498;-65
2022/04/21 11:01:56;;;;;;;1999.90;999.90;;;12.10;99.90;;;;;;5069869;28;20448;-65
2022/04/21 11:04:25;;;;;;;1999.90;999.90;;;12.30;99.90;;;;;;5071908;28;20509;-65
2022/04/21 11:06:56;;;;;;;1999.90;999.90;;;12.20;99.90;;;;;;5072745;28;20465;-65
2022/04/21 11:09:37;;;;;;;1999.90;999.90;;;12.20;99.90;;;;;;5072395;28;20839;-65
2022/04/21 11:12:05;;;;;;;1999.90;999.90;;;12.50;99.90;;;;;;5072113;28;20453;-66
2022/04/21 11:14:33;;;;;;;1999.90;999.90;;;12.70;99.90;;;;;;5072549;28;20450;-66
2022/04/21 11:17:00;;;;;;;1999.90;999.90;;;12.80;99.90;;;;;;5072370;28;20485;-66
2022/04/21 11:19:33;;;;;;;1999.90;999.90;;;12.70;99.90;;;;;;5071727;28;21051;-66
2022/04/21 11:22:01;;;;;;;1999.90;999.90;;;12.70;99.90;;;;;;5071594;28;20442;-64
2022/04/21 11:24:28;;;;;;;1999.90;999.90;;;12.80;99.90;;;;;;5072349;28;20448;-66
2022/04/21 11:26:55;;;;;;;1999.90;999.90;;;12.80;99.90;;;;;;5072005;28;20465;-65
2022/04/21 11:29:22;;;;;;;1999.90;999.90;;;13.00;99.90;;;;;;5071244;28;20518;-65
2022/04/21 11:31:49;;;;;;;1999.90;999.90;;;12.90;99.90;;;;;;5071679;28;20445;-65
2022/04/21 11:34:22;;;;;;;1999.90;999.90;;;13.00;99.90;;;;;;5079166;28;20504;-64
2022/04/21 11:36:53;;;;;;;1999.90;999.90;;;13.00;99.90;;;;;;5072513;28;21057;-67
2022/04/21 11:39:21;;;;;;;1999.90;999.90;;;12.70;99.90;;;;;;5072769;28;20935;-65
2022/04/21 11:41:48;;;;;;;1999.90;999.90;;;12.40;99.90;;;;;;5071980;28;20449;-65
2022/04/21 11:44:22;;;;;;;1999.90;999.90;;;12.20;99.90;;;;;;5071436;28;20848;-66
2022/04/21 11:46:49;;;;;;;1999.90;999.90;;;12.30;99.90;;;;;;5071648;28;20466;-65
2022/04/21 11:49:16;;;;;;;1999.90;999.90;;;12.40;99.90;;;;;;5071575;28;20453;-65
2022/04/21 11:51:44;;;;;;;1999.90;999.90;;;12.50;99.90;;;;;;5071680;28;20519;-65
2022/04/21 11:54:12;;;;;;;1999.90;999.90;;;12.40;99.90;;;;;;5071997;28;20449;-66
2022/04/21 11:56:39;;;;;;;1999.90;999.90;;;12.50;99.90;;;;;;5071475;28;20489;-66
2022/04/21 11:59:07;;;;;;;1999.90;999.90;;;12.40;99.90;;;;;;5071662;28;20450;-67
2022/04/21 12:07:04;;;;;;;1999.90;999.90;;;12.30;99.90;;;;;;5071197;28;20456;-66
2022/04/21 12:09:34;;;;;;;1999.90;999.90;;;12.70;99.90;;;;;;5071363;28;20986;-66
2022/04/21 12:12:02;;;;;;;1999.90;999.90;;;12.60;99.90;;;;;;5070583;28;20450;-65
2022/04/21 12:14:29;;;;;;;1999.90;999.90;;;12.50;99.90;;;;;;5071679;28;20449;-67
2022/04/21 12:16:57;;;;;;;1999.90;999.90;;;12.70;99.90;;;;;;5071662;28;20532;-67
2022/04/21 12:19:29;;;;;;;1999.90;999.90;;;12.40;99.90;;;;;;5071359;28;20457;-64
2022/04/21 12:21:58;;;;;;;1999.90;999.90;;;12.70;99.90;;;;;;5067979;28;20449;-65
2022/04/21 12:24:34;;;;;;;1999.90;999.90;;;12.40;99.90;;;;;;5073485;28;20457;-65
2022/04/21 12:27:03;;;;;;;1999.90;999.90;;;12.40;99.90;;;;;;5075921;28;20457;-66
2022/04/21 12:29:31;;;;;;;1999.90;999.90;;;12.50;99.90;;;;;;5086829;28;20454;-64
2022/04/21 12:32:00;;;;;;;1999.90;999.90;;;12.70;99.90;;;;;;5072875;28;20535;-63
2022/04/21 12:34:28;;;;;;;1999.90;999.90;;;13.10;99.90;;;;;;5090951;28;20449;-65
2022/04/21 12:36:57;;;;;;;1999.90;999.90;;;13.30;99.90;;;;;;5081043;28;20492;-65
2022/04/21 12:39:24;;;;;;;1999.90;999.90;;;13.60;99.90;;;;;;5077690;28;20448;-64
2022/04/21 12:41:53;;;;;;;1999.90;999.90;;;13.80;99.90;;;;;;5088495;28;20858;-63
2022/04/21 12:44:23;;;;;;;1999.90;999.90;;;13.50;99.90;;;;;;5066519;28;20540;-65
2022/04/21 12:47:01;;;;;;;1999.90;999.90;;;13.30;99.90;;;;;;5071115;28;20501;-66
2022/04/21 12:49:56;;;;;;;1999.90;999.90;;;13.20;99.90;;;;;;5070712;28;20451;-65
2022/04/21 12:52:35;;;;;;;1999.90;999.90;;;13.40;99.90;;;;;;5071983;28;20453;-66
2022/04/21 12:55:04;;;;;;;1999.90;999.90;;;13.10;99.90;;;;;;5071753;28;20479;-66
2022/04/21 12:57:32;;;;;;;1999.90;999.90;;;12.90;99.90;;;;;;5071704;28;20500;-66
2022/04/21 12:59:59;;;;;;;1999.90;999.90;;;12.80;99.90;;;;;;5070394;28;20518;-65
2022/04/21 13:02:26;;;;;;;1999.90;999.90;;;12.80;99.90;;;;;;5067155;28;20534;-66
2022/04/21 13:04:53;;;;;;;1999.90;999.90;;;12.90;99.90;;;;;;5077514;28;20874;-66
2022/04/21 13:07:20;;;;;;;1999.90;999.90;;;13.10;99.90;;;;;;5071541;28;20469;-67
2022/04/21 13:09:47;;;;;;;1999.90;999.90;;;13.10;99.90;;;;;;5072576;28;20449;-65
2022/04/21 13:12:14;;;;;;;1999.90;999.90;;;13.10;99.90;;;;;;5070077;28;20965;-65